sensor_id;sensor_type;location;lat;lon;timestamp;temperature;humidity
39371;DHT22;25099;51.946;4.838;2023-05-18T00:01:53;12.30;99.90
39371;DHT22;25099;51.946;4.838;2023-05-18T00:04:19;12.30;99.90
39371;DHT22;25099;51.946;4.838;2023-05-18T00:06:48;12.30;99.90
39371;DHT22;25099;51.946;4.838;2023-05-18T00:09:14;12.30;99.90
39371;DHT22;25099;51.946;4.838;2023-05-18T00:11:40;12.30;99.90
39371;DHT22;25099;51.946;4.838;2023-05-18T00:14:05;12.30;99.90
39371;DHT22;25099;51.946;4.838;2023-05-18T00:16:32;12.30;99.90
39371;DHT22;25099;51.946;4.838;2023-05-18T00:18:57;12.30;99.90
39371;DHT22;25099;51.946;4.838;2023-05-18T00:21:23;12.30;99.90
39371;DHT22;25099;51.946;4.838;2023-05-18T00:23:54;12.30;99.90
39371;DHT22;25099;51.946;4.838;2023-05-18T00:26:20;12.30;99.90
39371;DHT22;25099;51.946;4.838;2023-05-18T00:28:46;12.30;99.90
39371;DHT22;25099;51.946;4.838;2023-05-18T00:31:11;12.20;99.90
39371;DHT22;25099;51.946;4.838;2023-05-18T00:33:37;12.30;99.90
39371;DHT22;25099;51.946;4.838;2023-05-18T00:36:03;12.20;99.90
39371;DHT22;25099;51.946;4.838;2023-05-18T00:38:28;12.20;99.90
39371;DHT22;25099;51.946;4.838;2023-05-18T00:40:54;12.30;99.90
39371;DHT22;25099;51.946;4.838;2023-05-18T00:43:19;12.20;99.90
39371;DHT22;25099;51.946;4.838;2023-05-18T00:45:45;12.20;99.90
39371;DHT22;25099;51.946;4.838;2023-05-18T00:48:11;12.20;99.90
39371;DHT22;25099;51.946;4.838;2023-05-18T00:50:36;12.20;99.90
39371;DHT22;25099;51.946;4.838;2023-05-18T00:53:02;12.20;99.90
39371;DHT22;25099;51.946;4.838;2023-05-18T00:55:28;12.20;99.90
39371;DHT22;25099;51.946;4.838;2023-05-18T00:57:54;12.10;99.90
39371;DHT22;25099;51.946;4.838;2023-05-18T01:00:21;12.10;99.90
39371;DHT22;25099;51.946;4.838;2023-05-18T01:02:47;12.70;99.90
39371;DHT22;25099;51.946;4.838;2023-05-18T01:05:15;12.10;99.90
39371;DHT22;25099;51.946;4.838;2023-05-18T01:07:42;12.10;99.90
39371;DHT22;25099;51.946;4.838;2023-05-18T01:10:12;12.10;99.90
39371;DHT22;25099;51.946;4.838;2023-05-18T01:12:55;12.10;99.90
39371;DHT22;25099;51.946;4.838;2023-05-18T01:15:31;12.10;99.90
39371;DHT22;25099;51.946;4.838;2023-05-18T01:28:31;12.10;99.90
39371;DHT22;25099;51.946;4.838;2023-05-18T01:30:57;12.10;99.90
39371;DHT22;25099;51.946;4.838;2023-05-18T01:33:23;12.10;99.90
39371;DHT22;25099;51.946;4.838;2023-05-18T01:35:50;12.10;99.90
39371;DHT22;25099;51.946;4.838;2023-05-18T01:38:21;12.10;99.90
39371;DHT22;25099;51.946;4.838;2023-05-18T01:41:11;12.00;99.90
39371;DHT22;25099;51.946;4.838;2023-05-18T01:49:44;12.00;99.90
39371;DHT22;25099;51.946;4.838;2023-05-18T01:52:20;12.00;99.90
39371;DHT22;25099;51.946;4.838;2023-05-18T01:54:50;11.90;99.90
39371;DHT22;25099;51.946;4.838;2023-05-18T01:57:19;11.90;99.90
39371;DHT22;25099;51.946;4.838;2023-05-18T01:59:46;11.90;99.90
39371;DHT22;25099;51.946;4.838;2023-05-18T02:02:12;11.90;99.90
39371;DHT22;25099;51.946;4.838;2023-05-18T02:04:38;11.80;99.90
39371;DHT22;25099;51.946;4.838;2023-05-18T02:07:03;11.90;99.90
39371;DHT22;25099;51.946;4.838;2023-05-18T02:09:29;12.70;99.90
39371;DHT22;25099;51.946;4.838;2023-05-18T02:11:54;11.80;99.90
39371;DHT22;25099;51.946;4.838;2023-05-18T02:14:20;11.80;99.90
39371;DHT22;25099;51.946;4.838;2023-05-18T02:16:46;11.80;99.90
39371;DHT22;25099;51.946;4.838;2023-05-18T02:19:17;11.80;99.90
39371;DHT22;25099;51.946;4.838;2023-05-18T02:21:43;11.80;99.90
39371;DHT22;25099;51.946;4.838;2023-05-18T02:24:09;11.70;99.90
39371;DHT22;25099;51.946;4.838;2023-05-18T02:26:36;11.80;99.90
39371;DHT22;25099;51.946;4.838;2023-05-18T02:29:02;11.80;99.90
39371;DHT22;25099;51.946;4.838;2023-05-18T02:31:28;11.70;99.90
39371;DHT22;25099;51.946;4.838;2023-05-18T02:33:55;11.70;99.90
39371;DHT22;25099;51.946;4.838;2023-05-18T02:36:21;11.70;99.90
39371;DHT22;25099;51.946;4.838;2023-05-18T02:38:47;11.80;99.90
39371;DHT22;25099;51.946;4.838;2023-05-18T02:41:13;11.70;99.90
39371;DHT22;25099;51.946;4.838;2023-05-18T02:43:39;11.80;99.90
39371;DHT22;25099;51.946;4.838;2023-05-18T02:46:04;11.80;99.90
39371;DHT22;25099;51.946;4.838;2023-05-18T02:48:30;11.70;99.90
39371;DHT22;25099;51.946;4.838;2023-05-18T02:50:56;11.70;99.90
39371;DHT22;25099;51.946;4.838;2023-05-18T02:53:23;11.70;99.90
39371;DHT22;25099;51.946;4.838;2023-05-18T02:55:48;11.70;99.90
39371;DHT22;25099;51.946;4.838;2023-05-18T02:58:14;11.70;99.90
39371;DHT22;25099;51.946;4.838;2023-05-18T03:00:40;11.70;99.90
39371;DHT22;25099;51.946;4.838;2023-05-18T03:03:06;11.60;99.90
39371;DHT22;25099;51.946;4.838;2023-05-18T03:05:37;11.60;99.90
39371;DHT22;25099;51.946;4.838;2023-05-18T03:08:03;11.60;99.90
39371;DHT22;25099;51.946;4.838;2023-05-18T03:10:29;11.60;99.90
39371;DHT22;25099;51.946;4.838;2023-05-18T03:12:54;11.60;99.90
39371;DHT22;25099;51.946;4.838;2023-05-18T03:15:20;11.60;99.90
39371;DHT22;25099;51.946;4.838;2023-05-18T03:17:46;11.60;99.90
39371;DHT22;25099;51.946;4.838;2023-05-18T03:20:11;11.50;99.90
39371;DHT22;25099;51.946;4.838;2023-05-18T03:22:39;11.50;99.90
39371;DHT22;25099;51.946;4.838;2023-05-18T03:25:06;11.50;99.90
39371;DHT22;25099;51.946;4.838;2023-05-18T03:27:32;11.50;99.90
39371;DHT22;25099;51.946;4.838;2023-05-18T03:29:58;11.50;99.90
39371;DHT22;25099;51.946;4.838;2023-05-18T03:32:23;11.50;99.90
39371;DHT22;25099;51.946;4.838;2023-05-18T03:34:50;11.50;99.90
39371;DHT22;25099;51.946;4.838;2023-05-18T03:37:17;11.50;99.90
39371;DHT22;25099;51.946;4.838;2023-05-18T03:39:42;11.50;99.90
39371;DHT22;25099;51.946;4.838;2023-05-18T03:42:08;11.50;99.90
39371;DHT22;25099;51.946;4.838;2023-05-18T03:44:34;11.50;99.90
39371;DHT22;25099;51.946;4.838;2023-05-18T03:46:59;11.40;99.90
39371;DHT22;25099;51.946;4.838;2023-05-18T03:49:25;11.50;99.90
39371;DHT22;25099;51.946;4.838;2023-05-18T03:51:50;11.40;99.90
39371;DHT22;25099;51.946;4.838;2023-05-18T03:54:18;11.50;99.90
39371;DHT22;25099;51.946;4.838;2023-05-18T03:56:45;11.40;99.90
39371;DHT22;25099;51.946;4.838;2023-05-18T03:59:11;11.40;99.90
39371;DHT22;25099;51.946;4.838;2023-05-18T04:01:36;11.40;99.90
39371;DHT22;25099;51.946;4.838;2023-05-18T04:04:02;12.20;99.90
39371;DHT22;25099;51.946;4.838;2023-05-18T04:06:28;11.30;99.90
39371;DHT22;25099;51.946;4.838;2023-05-18T04:08:54;11.40;99.90
39371;DHT22;25099;51.946;4.838;2023-05-18T04:11:20;11.30;99.90
39371;DHT22;25099;51.946;4.838;2023-05-18T04:13:46;11.30;99.90
39371;DHT22;25099;51.946;4.838;2023-05-18T04:16:12;11.30;99.90
39371;DHT22;25099;51.946;4.838;2023-05-18T04:18:40;11.30;99.90
39371;DHT22;25099;51.946;4.838;2023-05-18T04:21:06;11.30;99.90
39371;DHT22;25099;51.946;4.838;2023-05-18T04:23:32;11.30;99.90
39371;DHT22;25099;51.946;4.838;2023-05-18T04:26:03;11.30;99.90
39371;DHT22;25099;51.946;4.838;2023-05-18T04:28:30;11.30;99.90
39371;DHT22;25099;51.946;4.838;2023-05-18T04:30:55;12.00;99.90
39371;DHT22;25099;51.946;4.838;2023-05-18T04:33:21;11.30;99.90
39371;DHT22;25099;51.946;4.838;2023-05-18T04:35:47;11.30;99.90
39371;DHT22;25099;51.946;4.838;2023-05-18T04:38:12;11.00;99.90
39371;DHT22;25099;51.946;4.838;2023-05-18T04:40:39;10.80;99.90
39371;DHT22;25099;51.946;4.838;2023-05-18T04:43:06;10.80;99.90
39371;DHT22;25099;51.946;4.838;2023-05-18T04:45:32;10.90;99.90
39371;DHT22;25099;51.946;4.838;2023-05-18T04:47:58;10.80;99.90
39371;DHT22;25099;51.946;4.838;2023-05-18T04:50:23;10.80;99.90
39371;DHT22;25099;51.946;4.838;2023-05-18T04:52:50;10.90;99.90
39371;DHT22;25099;51.946;4.838;2023-05-18T04:55:17;10.90;99.90
39371;DHT22;25099;51.946;4.838;2023-05-18T04:57:48;10.80;99.90
39371;DHT22;25099;51.946;4.838;2023-05-18T05:00:14;10.80;99.90
39371;DHT22;25099;51.946;4.838;2023-05-18T05:02:40;10.90;99.90
39371;DHT22;25099;51.946;4.838;2023-05-18T05:05:06;11.00;99.90
39371;DHT22;25099;51.946;4.838;2023-05-18T05:07:32;11.00;99.90
39371;DHT22;25099;51.946;4.838;2023-05-18T05:09:58;11.10;99.90
39371;DHT22;25099;51.946;4.838;2023-05-18T05:12:23;11.10;99.90
39371;DHT22;25099;51.946;4.838;2023-05-18T05:14:49;11.10;99.90
39371;DHT22;25099;51.946;4.838;2023-05-18T05:17:14;11.20;99.90
39371;DHT22;25099;51.946;4.838;2023-05-18T05:19:40;11.20;99.90
39371;DHT22;25099;51.946;4.838;2023-05-18T05:22:06;11.30;99.90
39371;DHT22;25099;51.946;4.838;2023-05-18T05:24:32;11.30;99.90
39371;DHT22;25099;51.946;4.838;2023-05-18T05:26:57;11.30;99.90
39371;DHT22;25099;51.946;4.838;2023-05-18T05:29:23;11.30;99.90
39371;DHT22;25099;51.946;4.838;2023-05-18T05:31:50;11.50;99.90
39371;DHT22;25099;51.946;4.838;2023-05-18T05:34:16;11.30;99.90
39371;DHT22;25099;51.946;4.838;2023-05-18T05:36:41;11.20;99.90
39371;DHT22;25099;51.946;4.838;2023-05-18T05:39:07;11.20;99.90
39371;DHT22;25099;51.946;4.838;2023-05-18T05:41:33;11.30;99.90
39371;DHT22;25099;51.946;4.838;2023-05-18T05:43:58;11.20;99.90
39371;DHT22;25099;51.946;4.838;2023-05-18T05:46:24;11.30;99.90
39371;DHT22;25099;51.946;4.838;2023-05-18T05:48:49;11.30;99.90
39371;DHT22;25099;51.946;4.838;2023-05-18T05:51:15;11.20;99.90
39371;DHT22;25099;51.946;4.838;2023-05-18T05:53:41;11.20;99.90
39371;DHT22;25099;51.946;4.838;2023-05-18T05:56:08;11.20;99.90
39371;DHT22;25099;51.946;4.838;2023-05-18T05:58:33;11.20;99.90
39371;DHT22;25099;51.946;4.838;2023-05-18T06:00:59;11.30;99.90
39371;DHT22;25099;51.946;4.838;2023-05-18T06:03:24;11.30;99.90
39371;DHT22;25099;51.946;4.838;2023-05-18T06:05:50;11.30;99.90
39371;DHT22;25099;51.946;4.838;2023-05-18T06:08:16;11.30;99.90
39371;DHT22;25099;51.946;4.838;2023-05-18T06:10:42;11.40;99.90
39371;DHT22;25099;51.946;4.838;2023-05-18T06:13:07;11.40;99.90
39371;DHT22;25099;51.946;4.838;2023-05-18T06:15:33;11.40;99.90
39371;DHT22;25099;51.946;4.838;2023-05-18T06:17:58;11.40;99.90
39371;DHT22;25099;51.946;4.838;2023-05-18T06:20:24;11.50;99.90
39371;DHT22;25099;51.946;4.838;2023-05-18T06:22:50;11.50;99.90
39371;DHT22;25099;51.946;4.838;2023-05-18T06:25:16;11.50;99.90
39371;DHT22;25099;51.946;4.838;2023-05-18T06:27:42;11.50;99.90
39371;DHT22;25099;51.946;4.838;2023-05-18T06:30:09;11.50;99.90
39371;DHT22;25099;51.946;4.838;2023-05-18T06:32:35;11.60;99.90
39371;DHT22;25099;51.946;4.838;2023-05-18T06:35:02;11.60;99.90
39371;DHT22;25099;51.946;4.838;2023-05-18T06:37:28;11.60;99.90
39371;DHT22;25099;51.946;4.838;2023-05-18T06:39:54;11.60;99.90
39371;DHT22;25099;51.946;4.838;2023-05-18T06:42:19;11.70;99.90
39371;DHT22;25099;51.946;4.838;2023-05-18T06:44:45;11.60;99.90
39371;DHT22;25099;51.946;4.838;2023-05-18T06:47:10;11.70;99.90
39371;DHT22;25099;51.946;4.838;2023-05-18T06:49:36;11.70;99.90
39371;DHT22;25099;51.946;4.838;2023-05-18T06:52:02;11.70;99.90
39371;DHT22;25099;51.946;4.838;2023-05-18T06:54:28;11.70;99.90
39371;DHT22;25099;51.946;4.838;2023-05-18T06:56:54;11.70;99.90
39371;DHT22;25099;51.946;4.838;2023-05-18T06:59:20;11.60;99.90
39371;DHT22;25099;51.946;4.838;2023-05-18T07:01:46;11.80;99.90
39371;DHT22;25099;51.946;4.838;2023-05-18T07:04:12;11.80;99.90
39371;DHT22;25099;51.946;4.838;2023-05-18T07:06:37;11.80;99.90
39371;DHT22;25099;51.946;4.838;2023-05-18T07:09:03;11.80;99.90
39371;DHT22;25099;51.946;4.838;2023-05-18T07:11:29;11.70;99.90
39371;DHT22;25099;51.946;4.838;2023-05-18T07:13:54;11.70;99.90
39371;DHT22;25099;51.946;4.838;2023-05-18T07:16:20;11.80;99.90
39371;DHT22;25099;51.946;4.838;2023-05-18T07:18:46;12.50;99.90
39371;DHT22;25099;51.946;4.838;2023-05-18T07:21:11;11.80;99.90
39371;DHT22;25099;51.946;4.838;2023-05-18T07:23:37;11.90;99.90
39371;DHT22;25099;51.946;4.838;2023-05-18T07:26:02;11.90;99.90
39371;DHT22;25099;51.946;4.838;2023-05-18T07:28:28;12.40;99.90
39371;DHT22;25099;51.946;4.838;2023-05-18T07:30:53;12.80;99.90
39371;DHT22;25099;51.946;4.838;2023-05-18T07:33:19;11.90;99.90
39371;DHT22;25099;51.946;4.838;2023-05-18T07:35:44;12.20;99.90
39371;DHT22;25099;51.946;4.838;2023-05-18T07:38:10;12.00;99.90
39371;DHT22;25099;51.946;4.838;2023-05-18T07:40:36;11.90;99.90
39371;DHT22;25099;51.946;4.838;2023-05-18T07:43:01;11.90;99.90
39371;DHT22;25099;51.946;4.838;2023-05-18T07:45:27;12.00;99.90
39371;DHT22;25099;51.946;4.838;2023-05-18T07:47:53;12.00;99.90
39371;DHT22;25099;51.946;4.838;2023-05-18T07:50:18;12.00;99.90
39371;DHT22;25099;51.946;4.838;2023-05-18T07:52:44;12.00;99.90
39371;DHT22;25099;51.946;4.838;2023-05-18T07:55:09;12.00;99.90
39371;DHT22;25099;51.946;4.838;2023-05-18T07:57:35;12.10;99.90
39371;DHT22;25099;51.946;4.838;2023-05-18T08:00:02;12.10;99.90
39371;DHT22;25099;51.946;4.838;2023-05-18T08:02:29;12.20;99.90
39371;DHT22;25099;51.946;4.838;2023-05-18T08:04:54;12.10;99.90
39371;DHT22;25099;51.946;4.838;2023-05-18T08:07:20;12.40;99.90
39371;DHT22;25099;51.946;4.838;2023-05-18T08:09:45;12.00;99.90
39371;DHT22;25099;51.946;4.838;2023-05-18T08:12:11;12.00;99.90
39371;DHT22;25099;51.946;4.838;2023-05-18T08:14:36;12.00;99.90
39371;DHT22;25099;51.946;4.838;2023-05-18T08:17:03;12.00;99.90
39371;DHT22;25099;51.946;4.838;2023-05-18T08:19:28;12.00;99.90
39371;DHT22;25099;51.946;4.838;2023-05-18T08:21:54;12.10;99.90
39371;DHT22;25099;51.946;4.838;2023-05-18T08:24:19;12.20;99.90
39371;DHT22;25099;51.946;4.838;2023-05-18T08:26:45;12.00;99.90
39371;DHT22;25099;51.946;4.838;2023-05-18T08:29:10;12.10;99.90
39371;DHT22;25099;51.946;4.838;2023-05-18T08:31:37;11.90;99.90
39371;DHT22;25099;51.946;4.838;2023-05-18T08:34:06;11.90;99.90
39371;DHT22;25099;51.946;4.838;2023-05-18T08:36:36;12.00;99.90
39371;DHT22;25099;51.946;4.838;2023-05-18T08:39:02;12.00;99.90
39371;DHT22;25099;51.946;4.838;2023-05-18T08:41:31;12.00;99.90
39371;DHT22;25099;51.946;4.838;2023-05-18T08:44:02;12.00;99.90
39371;DHT22;25099;51.946;4.838;2023-05-18T08:46:34;11.90;99.90
39371;DHT22;25099;51.946;4.838;2023-05-18T08:49:01;11.90;99.90
39371;DHT22;25099;51.946;4.838;2023-05-18T08:51:29;11.90;99.90
39371;DHT22;25099;51.946;4.838;2023-05-18T08:53:57;11.80;99.90
39371;DHT22;25099;51.946;4.838;2023-05-18T08:56:24;11.70;99.90
39371;DHT22;25099;51.946;4.838;2023-05-18T08:58:54;11.70;99.90
39371;DHT22;25099;51.946;4.838;2023-05-18T09:01:20;11.80;99.90
39371;DHT22;25099;51.946;4.838;2023-05-18T09:03:48;11.90;99.90
39371;DHT22;25099;51.946;4.838;2023-05-18T09:06:14;11.90;99.90
39371;DHT22;25099;51.946;4.838;2023-05-18T09:08:40;11.90;99.90
39371;DHT22;25099;51.946;4.838;2023-05-18T09:11:07;11.70;99.90
39371;DHT22;25099;51.946;4.838;2023-05-18T09:13:33;11.80;99.90
39371;DHT22;25099;51.946;4.838;2023-05-18T09:15:58;11.90;99.90
39371;DHT22;25099;51.946;4.838;2023-05-18T09:18:24;12.00;99.90
39371;DHT22;25099;51.946;4.838;2023-05-18T09:20:49;11.90;99.90
39371;DHT22;25099;51.946;4.838;2023-05-18T09:23:15;12.00;99.90
39371;DHT22;25099;51.946;4.838;2023-05-18T09:25:45;12.00;99.90
39371;DHT22;25099;51.946;4.838;2023-05-18T09:28:12;12.60;99.90
39371;DHT22;25099;51.946;4.838;2023-05-18T09:30:42;12.00;99.90
39371;DHT22;25099;51.946;4.838;2023-05-18T09:33:15;11.90;99.90
39371;DHT22;25099;51.946;4.838;2023-05-18T09:35:43;11.90;99.90
39371;DHT22;25099;51.946;4.838;2023-05-18T09:38:11;11.80;99.90
39371;DHT22;25099;51.946;4.838;2023-05-18T09:40:39;11.90;99.90
39371;DHT22;25099;51.946;4.838;2023-05-18T09:43:07;11.90;99.90
39371;DHT22;25099;51.946;4.838;2023-05-18T09:45:41;12.10;99.90
39371;DHT22;25099;51.946;4.838;2023-05-18T09:48:06;12.20;99.90
39371;DHT22;25099;51.946;4.838;2023-05-18T09:50:32;12.10;99.90
39371;DHT22;25099;51.946;4.838;2023-05-18T09:52:59;12.10;99.90
39371;DHT22;25099;51.946;4.838;2023-05-18T09:55:24;12.00;99.90
39371;DHT22;25099;51.946;4.838;2023-05-18T09:57:50;12.10;99.90
39371;DHT22;25099;51.946;4.838;2023-05-18T10:00:18;12.00;99.90
39371;DHT22;25099;51.946;4.838;2023-05-18T10:02:47;12.10;99.90
39371;DHT22;25099;51.946;4.838;2023-05-18T10:05:20;12.00;99.90
39371;DHT22;25099;51.946;4.838;2023-05-18T10:07:45;12.00;99.90
39371;DHT22;25099;51.946;4.838;2023-05-18T10:10:11;12.10;99.90
39371;DHT22;25099;51.946;4.838;2023-05-18T10:12:40;12.20;99.90
39371;DHT22;25099;51.946;4.838;2023-05-18T10:15:09;12.10;99.90
39371;DHT22;25099;51.946;4.838;2023-05-18T10:17:38;12.10;99.90
39371;DHT22;25099;51.946;4.838;2023-05-18T10:20:07;12.20;99.90
39371;DHT22;25099;51.946;4.838;2023-05-18T10:22:34;12.20;99.90
39371;DHT22;25099;51.946;4.838;2023-05-18T10:25:03;12.30;99.90
39371;DHT22;25099;51.946;4.838;2023-05-18T10:27:33;12.30;99.90
39371;DHT22;25099;51.946;4.838;2023-05-18T10:29:58;12.30;99.90
39371;DHT22;25099;51.946;4.838;2023-05-18T10:32:29;12.30;99.90
39371;DHT22;25099;51.946;4.838;2023-05-18T10:34:55;12.30;99.90
39371;DHT22;25099;51.946;4.838;2023-05-18T10:37:22;12.30;99.90
39371;DHT22;25099;51.946;4.838;2023-05-18T10:39:50;12.30;99.90
39371;DHT22;25099;51.946;4.838;2023-05-18T10:42:16;12.30;99.90
39371;DHT22;25099;51.946;4.838;2023-05-18T10:44:44;12.30;99.90
39371;DHT22;25099;51.946;4.838;2023-05-18T10:47:13;12.40;99.90
39371;DHT22;25099;51.946;4.838;2023-05-18T10:49:41;12.50;99.90
39371;DHT22;25099;51.946;4.838;2023-05-18T10:52:08;12.50;99.90
39371;DHT22;25099;51.946;4.838;2023-05-18T10:54:36;12.50;99.90
39371;DHT22;25099;51.946;4.838;2023-05-18T10:57:01;12.50;99.90
39371;DHT22;25099;51.946;4.838;2023-05-18T10:59:27;12.70;99.90
39371;DHT22;25099;51.946;4.838;2023-05-18T11:01:53;12.70;99.90
39371;DHT22;25099;51.946;4.838;2023-05-18T11:04:24;12.60;99.90
39371;DHT22;25099;51.946;4.838;2023-05-18T11:06:57;12.70;99.90
39371;DHT22;25099;51.946;4.838;2023-05-18T11:09:23;12.80;99.90
39371;DHT22;25099;51.946;4.838;2023-05-18T11:11:56;12.90;99.90
39371;DHT22;25099;51.946;4.838;2023-05-18T11:14:27;13.00;99.90
39371;DHT22;25099;51.946;4.838;2023-05-18T11:16:53;13.00;99.90
39371;DHT22;25099;51.946;4.838;2023-05-18T11:19:23;13.10;99.90
39371;DHT22;25099;51.946;4.838;2023-05-18T11:21:51;13.10;99.90
39371;DHT22;25099;51.946;4.838;2023-05-18T11:24:30;13.00;99.90
39371;DHT22;25099;51.946;4.838;2023-05-18T11:27:01;13.10;99.90
39371;DHT22;25099;51.946;4.838;2023-05-18T11:29:33;13.10;99.90
39371;DHT22;25099;51.946;4.838;2023-05-18T11:32:01;13.20;99.90
39371;DHT22;25099;51.946;4.838;2023-05-18T11:34:38;13.10;99.90
39371;DHT22;25099;51.946;4.838;2023-05-18T11:37:04;13.20;99.90
39371;DHT22;25099;51.946;4.838;2023-05-18T11:39:31;13.20;99.90
39371;DHT22;25099;51.946;4.838;2023-05-18T11:42:03;13.30;99.90
39371;DHT22;25099;51.946;4.838;2023-05-18T11:44:30;13.30;99.90
39371;DHT22;25099;51.946;4.838;2023-05-18T11:47:01;13.30;99.90
39371;DHT22;25099;51.946;4.838;2023-05-18T11:49:47;13.40;99.90
39371;DHT22;25099;51.946;4.838;2023-05-18T11:52:18;13.50;99.90
39371;DHT22;25099;51.946;4.838;2023-05-18T11:57:20;13.50;99.90
39371;DHT22;25099;51.946;4.838;2023-05-18T11:59:52;13.40;99.90
39371;DHT22;25099;51.946;4.838;2023-05-18T12:02:23;13.40;99.90
39371;DHT22;25099;51.946;4.838;2023-05-18T12:04:51;13.40;99.90
39371;DHT22;25099;51.946;4.838;2023-05-18T12:07:18;13.40;99.90
39371;DHT22;25099;51.946;4.838;2023-05-18T12:09:45;13.40;99.90
39371;DHT22;25099;51.946;4.838;2023-05-18T12:12:13;13.40;99.90
39371;DHT22;25099;51.946;4.838;2023-05-18T12:14:42;13.50;99.90
39371;DHT22;25099;51.946;4.838;2023-05-18T12:17:09;13.50;99.90
39371;DHT22;25099;51.946;4.838;2023-05-18T12:19:41;13.60;99.90
39371;DHT22;25099;51.946;4.838;2023-05-18T12:22:08;13.60;99.90
39371;DHT22;25099;51.946;4.838;2023-05-18T12:24:34;13.60;99.90
39371;DHT22;25099;51.946;4.838;2023-05-18T12:26:59;13.60;99.90
39371;DHT22;25099;51.946;4.838;2023-05-18T12:29:29;13.50;99.90
39371;DHT22;25099;51.946;4.838;2023-05-18T12:31:55;13.50;99.90
39371;DHT22;25099;51.946;4.838;2023-05-18T12:34:20;14.10;99.90
39371;DHT22;25099;51.946;4.838;2023-05-18T12:36:52;13.60;99.90
39371;DHT22;25099;51.946;4.838;2023-05-18T12:39:18;13.70;99.90
39371;DHT22;25099;51.946;4.838;2023-05-18T12:41:44;13.80;99.90
39371;DHT22;25099;51.946;4.838;2023-05-18T12:44:10;13.90;99.90
39371;DHT22;25099;51.946;4.838;2023-05-18T12:46:35;13.80;99.90
39371;DHT22;25099;51.946;4.838;2023-05-18T12:49:01;13.80;99.90
39371;DHT22;25099;51.946;4.838;2023-05-18T12:51:32;13.90;99.90
39371;DHT22;25099;51.946;4.838;2023-05-18T12:53:59;13.90;99.90
39371;DHT22;25099;51.946;4.838;2023-05-18T12:56:25;13.90;99.90
39371;DHT22;25099;51.946;4.838;2023-05-18T12:59:00;14.20;99.90
39371;DHT22;25099;51.946;4.838;2023-05-18T13:01:40;14.10;99.90
39371;DHT22;25099;51.946;4.838;2023-05-18T13:04:09;14.20;99.90
39371;DHT22;25099;51.946;4.838;2023-05-18T13:06:37;14.20;99.90
39371;DHT22;25099;51.946;4.838;2023-05-18T13:09:06;14.20;99.90
39371;DHT22;25099;51.946;4.838;2023-05-18T13:11:32;14.20;99.90
39371;DHT22;25099;51.946;4.838;2023-05-18T13:14:03;14.30;99.90
39371;DHT22;25099;51.946;4.838;2023-05-18T13:16:30;14.30;99.90
39371;DHT22;25099;51.946;4.838;2023-05-18T13:19:03;14.30;99.90
39371;DHT22;25099;51.946;4.838;2023-05-18T13:21:29;14.30;99.90
39371;DHT22;25099;51.946;4.838;2023-05-18T13:23:55;14.30;99.90
39371;DHT22;25099;51.946;4.838;2023-05-18T13:26:21;14.40;99.90
39371;DHT22;25099;51.946;4.838;2023-05-18T13:28:50;14.50;99.90
39371;DHT22;25099;51.946;4.838;2023-05-18T13:31:17;14.60;99.90
39371;DHT22;25099;51.946;4.838;2023-05-18T13:33:43;14.70;99.90
39371;DHT22;25099;51.946;4.838;2023-05-18T13:36:09;14.80;99.90
39371;DHT22;25099;51.946;4.838;2023-05-18T13:38:34;14.90;99.90
39371;DHT22;25099;51.946;4.838;2023-05-18T13:41:02;14.90;99.90
39371;DHT22;25099;51.946;4.838;2023-05-18T13:43:28;14.90;99.90
39371;DHT22;25099;51.946;4.838;2023-05-18T13:45:54;14.90;99.90
39371;DHT22;25099;51.946;4.838;2023-05-18T13:48:19;14.90;99.50
39371;DHT22;25099;51.946;4.838;2023-05-18T13:50:45;15.00;99.90
39371;DHT22;25099;51.946;4.838;2023-05-18T13:53:10;15.00;99.50
39371;DHT22;25099;51.946;4.838;2023-05-18T13:55:37;15.10;99.40
39371;DHT22;25099;51.946;4.838;2023-05-18T13:58:03;15.00;99.60
39371;DHT22;25099;51.946;4.838;2023-05-18T14:00:28;15.10;99.80
39371;DHT22;25099;51.946;4.838;2023-05-18T14:02:57;15.10;99.90
39371;DHT22;25099;51.946;4.838;2023-05-18T14:05:23;15.20;99.90
39371;DHT22;25099;51.946;4.838;2023-05-18T14:07:49;15.30;99.80
39371;DHT22;25099;51.946;4.838;2023-05-18T14:10:16;15.50;99.20
39371;DHT22;25099;51.946;4.838;2023-05-18T14:12:42;15.30;99.30
39371;DHT22;25099;51.946;4.838;2023-05-18T14:15:09;15.30;99.70
39371;DHT22;25099;51.946;4.838;2023-05-18T14:17:35;15.30;99.80
39371;DHT22;25099;51.946;4.838;2023-05-18T14:20:00;15.40;99.70
39371;DHT22;25099;51.946;4.838;2023-05-18T14:22:26;15.40;99.60
39371;DHT22;25099;51.946;4.838;2023-05-18T14:24:52;15.40;99.60
39371;DHT22;25099;51.946;4.838;2023-05-18T14:27:18;15.40;99.80
39371;DHT22;25099;51.946;4.838;2023-05-18T14:29:47;15.50;99.70
39371;DHT22;25099;51.946;4.838;2023-05-18T14:32:12;15.50;99.50
39371;DHT22;25099;51.946;4.838;2023-05-18T14:34:38;15.60;99.70
39371;DHT22;25099;51.946;4.838;2023-05-18T14:37:03;15.70;99.60
39371;DHT22;25099;51.946;4.838;2023-05-18T14:39:29;15.70;99.20
39371;DHT22;25099;51.946;4.838;2023-05-18T14:41:55;15.70;99.10
39371;DHT22;25099;51.946;4.838;2023-05-18T14:44:20;15.70;99.10
39371;DHT22;25099;51.946;4.838;2023-05-18T14:46:46;15.70;99.10
39371;DHT22;25099;51.946;4.838;2023-05-18T14:49:12;15.70;98.90
39371;DHT22;25099;51.946;4.838;2023-05-18T14:51:37;15.70;99.20
39371;DHT22;25099;51.946;4.838;2023-05-18T14:54:03;15.70;99.30
39371;DHT22;25099;51.946;4.838;2023-05-18T14:56:29;15.70;99.10
39371;DHT22;25099;51.946;4.838;2023-05-18T14:58:55;15.70;99.10
39371;DHT22;25099;51.946;4.838;2023-05-18T15:01:21;15.70;99.40
39371;DHT22;25099;51.946;4.838;2023-05-18T15:03:46;15.90;99.10
39371;DHT22;25099;51.946;4.838;2023-05-18T15:06:12;15.80;99.50
39371;DHT22;25099;51.946;4.838;2023-05-18T15:08:38;15.90;98.50
39371;DHT22;25099;51.946;4.838;2023-05-18T15:11:03;15.90;98.80
39371;DHT22;25099;51.946;4.838;2023-05-18T15:13:29;15.90;99.30
39371;DHT22;25099;51.946;4.838;2023-05-18T15:15:55;16.00;98.80
39371;DHT22;25099;51.946;4.838;2023-05-18T15:18:20;16.00;98.20
39371;DHT22;25099;51.946;4.838;2023-05-18T15:20:46;16.00;98.20
39371;DHT22;25099;51.946;4.838;2023-05-18T15:23:12;16.10;98.10
39371;DHT22;25099;51.946;4.838;2023-05-18T15:25:37;16.20;98.50
39371;DHT22;25099;51.946;4.838;2023-05-18T15:28:04;16.30;98.40
39371;DHT22;25099;51.946;4.838;2023-05-18T15:30:30;16.40;98.00
39371;DHT22;25099;51.946;4.838;2023-05-18T15:32:57;16.50;97.90
39371;DHT22;25099;51.946;4.838;2023-05-18T15:35:22;16.90;98.00
39371;DHT22;25099;51.946;4.838;2023-05-18T15:37:48;16.80;97.80
39371;DHT22;25099;51.946;4.838;2023-05-18T15:40:17;16.80;97.10
39371;DHT22;25099;51.946;4.838;2023-05-18T15:42:42;16.80;97.30
39371;DHT22;25099;51.946;4.838;2023-05-18T15:45:08;16.80;97.40
39371;DHT22;25099;51.946;4.838;2023-05-18T15:47:34;16.90;97.00